THY8GQ LTFM-LTCB
Flight info
| Callsign | THY8GQ |
|---|---|
| Flight time | 1h 3m |
| Altitude | 37000 |
| Route | EKAWE1E/36 EKAWE UT641 ABSAX UN743 GAKSU UT310 SIN UM860 CRM UM11 TERME |
| Aircraft | A320/M-SDE3FGHIRWY/LB1 |
Departure
| Time | 2026-04-15 15:18 |
|---|---|
| Airport | İstanbul Airport (LTFM) |
Arrival
| Time | 2026-04-15 16:22 |
|---|---|
| Airport | Ordu–Giresun Airport (LTCB) |
| Time | Latitude | Longitude | Altitude | Speed | Heading |
|---|---|---|---|---|---|
| 2026-04-15 14:41 | 41.26210 | 28.74848 | 334 ft | 0 kts | 251° |
| 2026-04-15 15:10 | 41.26212 | 28.74857 | 334 ft | 4 kts | 251° |
| 2026-04-15 15:11 | 41.26221 | 28.74890 | 333 ft | 4 kts | 251° |
| 2026-04-15 15:11 | 41.26227 | 28.74924 | 331 ft | 4 kts | 267° |
| 2026-04-15 15:11 | 41.26225 | 28.74959 | 330 ft | 4 kts | 291° |
| 2026-04-15 15:11 | 41.26211 | 28.74987 | 333 ft | 4 kts | 332° |
| 2026-04-15 15:12 | 41.26192 | 28.74995 | 331 ft | 4 kts | 346° |
| 2026-04-15 15:12 | 41.26185 | 28.74998 | 330 ft | 0 kts | 346° |
| 2026-04-15 15:15 | 41.26188 | 28.74997 | 334 ft | 2 kts | 346° |
| 2026-04-15 15:15 | 41.26210 | 28.74993 | 330 ft | 5 kts | 0° |
| 2026-04-15 15:15 | 41.26241 | 28.75029 | 331 ft | 8 kts | 69° |
| 2026-04-15 15:15 | 41.26243 | 28.75114 | 334 ft | 11 kts | 89° |
| 2026-04-15 15:16 | 41.26245 | 28.75230 | 334 ft | 14 kts | 89° |
| 2026-04-15 15:16 | 41.26247 | 28.75369 | 334 ft | 16 kts | 89° |
| 2026-04-15 15:16 | 41.26249 | 28.75503 | 334 ft | 7 kts | 89° |
| 2026-04-15 15:16 | 41.26249 | 28.75520 | 332 ft | 2 kts | 89° |
| 2026-04-15 15:17 | 41.26250 | 28.75553 | 332 ft | 5 kts | 89° |
| 2026-04-15 15:17 | 41.26251 | 28.75620 | 334 ft | 9 kts | 85° |
| 2026-04-15 15:17 | 41.26305 | 28.75664 | 333 ft | 11 kts | 4° |
| 2026-04-15 15:17 | 41.26456 | 28.75663 | 334 ft | 50 kts | 360° |
| 2026-04-15 15:18 | 41.27039 | 28.75651 | 331 ft | 114 kts | 359° |
| 2026-04-15 15:18 | 41.27997 | 28.75639 | 441 ft | 152 kts | 356° |
| 2026-04-15 15:18 | 41.29065 | 28.75624 | 1140 ft | 155 kts | 3° |
| 2026-04-15 15:18 | 41.30133 | 28.75910 | 1785 ft | 165 kts | 33° |
| 2026-04-15 15:19 | 41.31117 | 28.76865 | 2309 ft | 187 kts | 36° |
| 2026-04-15 15:19 | 41.32285 | 28.77874 | 2878 ft | 213 kts | 33° |
| 2026-04-15 15:19 | 41.33623 | 28.78971 | 3516 ft | 238 kts | 36° |
| 2026-04-15 15:19 | 41.34768 | 28.80684 | 4147 ft | 259 kts | 58° |
| 2026-04-15 15:20 | 41.35725 | 28.82758 | 5059 ft | 267 kts | 58° |
| 2026-04-15 15:20 | 41.36712 | 28.84896 | 5980 ft | 274 kts | 56° |
| 2026-04-15 15:20 | 41.37785 | 28.87031 | 6930 ft | 279 kts | 53° |
| 2026-04-15 15:20 | 41.38915 | 28.89161 | 7815 ft | 283 kts | 53° |
| 2026-04-15 15:21 | 41.40076 | 28.91311 | 8797 ft | 288 kts | 52° |
| 2026-04-15 15:21 | 41.41239 | 28.93464 | 9749 ft | 293 kts | 52° |
| 2026-04-15 15:21 | 41.42449 | 28.95715 | 10397 ft | 309 kts | 53° |
| 2026-04-15 15:21 | 41.43748 | 28.98139 | 10722 ft | 333 kts | 53° |
| 2026-04-15 15:22 | 41.45115 | 29.00704 | 11334 ft | 344 kts | 53° |
| 2026-04-15 15:22 | 41.46508 | 29.03333 | 12169 ft | 349 kts | 53° |
| 2026-04-15 15:22 | 41.47919 | 29.06005 | 13003 ft | 355 kts | 53° |
| 2026-04-15 15:22 | 41.49342 | 29.08705 | 13863 ft | 359 kts | 53° |
| 2026-04-15 15:23 | 41.50789 | 29.11455 | 14646 ft | 363 kts | 53° |
| 2026-04-15 15:23 | 41.52249 | 29.14233 | 15409 ft | 367 kts | 54° |
| 2026-04-15 15:23 | 41.53723 | 29.17038 | 16176 ft | 371 kts | 54° |
| 2026-04-15 15:23 | 41.55212 | 29.19877 | 16917 ft | 375 kts | 53° |
| 2026-04-15 15:24 | 41.56715 | 29.22742 | 17663 ft | 379 kts | 54° |
| 2026-04-15 15:24 | 41.58237 | 29.25637 | 18425 ft | 382 kts | 54° |
| 2026-04-15 15:24 | 41.59771 | 29.28556 | 19075 ft | 387 kts | 53° |
| 2026-04-15 15:24 | 41.61325 | 29.31513 | 19725 ft | 391 kts | 53° |
| 2026-04-15 15:25 | 41.62899 | 29.34513 | 20392 ft | 396 kts | 53° |
| 2026-04-15 15:25 | 41.64487 | 29.37542 | 21060 ft | 401 kts | 53° |
| 2026-04-15 15:25 | 41.66097 | 29.40621 | 21691 ft | 406 kts | 53° |
| 2026-04-15 15:25 | 41.67723 | 29.43739 | 22295 ft | 411 kts | 53° |
| 2026-04-15 15:26 | 41.69365 | 29.46896 | 22922 ft | 416 kts | 53° |
| 2026-04-15 15:26 | 41.71030 | 29.50097 | 23543 ft | 421 kts | 52° |
| 2026-04-15 15:26 | 41.72711 | 29.53332 | 24098 ft | 426 kts | 52° |
| 2026-04-15 15:26 | 41.74411 | 29.56610 | 24630 ft | 431 kts | 52° |
| 2026-04-15 15:27 | 41.76130 | 29.59925 | 25151 ft | 436 kts | 52° |
| 2026-04-15 15:27 | 41.77871 | 29.63279 | 25684 ft | 441 kts | 52° |
| 2026-04-15 15:27 | 41.79607 | 29.66625 | 26183 ft | 446 kts | 52° |
| 2026-04-15 15:27 | 41.81385 | 29.70057 | 26697 ft | 451 kts | 52° |
| 2026-04-15 15:28 | 41.83180 | 29.73527 | 27215 ft | 455 kts | 52° |
| 2026-04-15 15:28 | 41.84990 | 29.77035 | 27725 ft | 460 kts | 52° |
| 2026-04-15 15:28 | 41.86814 | 29.80584 | 28232 ft | 464 kts | 52° |
| 2026-04-15 15:28 | 41.88653 | 29.84166 | 28734 ft | 468 kts | 52° |
| 2026-04-15 15:29 | 41.90511 | 29.87778 | 29244 ft | 472 kts | 52° |
| 2026-04-15 15:29 | 41.92383 | 29.91411 | 29795 ft | 474 kts | 52° |
| 2026-04-15 15:29 | 41.94266 | 29.95061 | 30270 ft | 477 kts | 52° |
| 2026-04-15 15:29 | 41.96163 | 29.98741 | 30650 ft | 481 kts | 52° |
| 2026-04-15 15:30 | 41.98065 | 30.02446 | 31025 ft | 484 kts | 52° |
| 2026-04-15 15:30 | 41.99852 | 30.06316 | 31390 ft | 491 kts | 60° |
| 2026-04-15 15:30 | 42.01187 | 30.10551 | 31879 ft | 494 kts | 69° |
| 2026-04-15 15:30 | 42.02040 | 30.15027 | 32404 ft | 496 kts | 79° |
| 2026-04-15 15:31 | 42.02398 | 30.19635 | 32978 ft | 495 kts | 88° |
| 2026-04-15 15:31 | 42.02248 | 30.24251 | 33494 ft | 495 kts | 96° |
| 2026-04-15 15:31 | 42.01913 | 30.28863 | 33992 ft | 495 kts | 96° |
| 2026-04-15 15:31 | 42.01569 | 30.33471 | 34423 ft | 496 kts | 96° |
| 2026-04-15 15:32 | 42.01222 | 30.38090 | 34816 ft | 497 kts | 96° |
| 2026-04-15 15:32 | 42.00877 | 30.42715 | 35271 ft | 497 kts | 96° |
| 2026-04-15 15:32 | 42.00528 | 30.47342 | 35755 ft | 496 kts | 96° |
| 2026-04-15 15:32 | 42.00174 | 30.51946 | 36237 ft | 495 kts | 96° |
| 2026-04-15 15:33 | 41.99838 | 30.56480 | 36699 ft | 494 kts | 93° |
| 2026-04-15 15:33 | 41.99792 | 30.61081 | 37092 ft | 494 kts | 88° |
| 2026-04-15 15:33 | 41.99835 | 30.65694 | 37194 ft | 493 kts | 88° |
| 2026-04-15 15:33 | 41.99877 | 30.70303 | 37203 ft | 493 kts | 88° |
| 2026-04-15 15:34 | 41.99949 | 30.79517 | 37204 ft | 493 kts | 88° |
| 2026-04-15 15:34 | 42.00001 | 30.88746 | 37215 ft | 498 kts | 89° |
| 2026-04-15 15:35 | 42.00041 | 30.98100 | 37199 ft | 502 kts | 88° |
| 2026-04-15 15:35 | 42.01128 | 31.07311 | 37199 ft | 498 kts | 71° |
| 2026-04-15 15:36 | 42.03064 | 31.16272 | 37199 ft | 499 kts | 71° |
| 2026-04-15 15:36 | 42.04969 | 31.25259 | 37199 ft | 500 kts | 71° |
| 2026-04-15 15:37 | 42.06866 | 31.34255 | 37216 ft | 500 kts | 71° |
| 2026-04-15 15:37 | 42.08759 | 31.43248 | 37215 ft | 500 kts | 71° |
| 2026-04-15 15:38 | 42.10654 | 31.52254 | 37216 ft | 499 kts | 71° |
| 2026-04-15 15:38 | 42.12522 | 31.61198 | 37211 ft | 499 kts | 72° |
| 2026-04-15 15:39 | 42.14395 | 31.70200 | 37204 ft | 499 kts | 71° |
| 2026-04-15 15:39 | 42.16259 | 31.79229 | 37203 ft | 500 kts | 72° |
| 2026-04-15 15:40 | 42.18116 | 31.88263 | 37204 ft | 500 kts | 72° |
| 2026-04-15 15:40 | 42.19974 | 31.97292 | 37206 ft | 500 kts | 72° |
| 2026-04-15 15:41 | 42.21822 | 32.06338 | 37203 ft | 500 kts | 72° |
| 2026-04-15 15:41 | 42.23659 | 32.15395 | 37215 ft | 500 kts | 72° |
| 2026-04-15 15:42 | 42.25521 | 32.24426 | 37206 ft | 499 kts | 70° |
| 2026-04-15 15:42 | 42.27574 | 32.33361 | 37204 ft | 498 kts | 69° |
| 2026-04-15 15:43 | 42.29693 | 32.42268 | 37208 ft | 498 kts | 69° |
| 2026-04-15 15:43 | 42.31765 | 32.51209 | 37224 ft | 499 kts | 70° |
| 2026-04-15 15:44 | 42.32830 | 32.60481 | 37218 ft | 503 kts | 89° |
| 2026-04-15 15:44 | 42.32052 | 32.69881 | 37211 ft | 504 kts | 98° |
| 2026-04-15 15:45 | 42.31004 | 32.79186 | 37202 ft | 504 kts | 98° |
| 2026-04-15 15:45 | 42.29948 | 32.88555 | 37200 ft | 504 kts | 98° |
| 2026-04-15 15:46 | 42.28875 | 32.97918 | 37211 ft | 504 kts | 98° |
| 2026-04-15 15:46 | 42.27788 | 33.07270 | 37201 ft | 504 kts | 98° |
| 2026-04-15 15:47 | 42.26696 | 33.16635 | 37193 ft | 505 kts | 98° |
| 2026-04-15 15:47 | 42.25597 | 33.25993 | 37186 ft | 506 kts | 98° |
| 2026-04-15 15:48 | 42.24488 | 33.35370 | 37215 ft | 506 kts | 98° |
| 2026-04-15 15:48 | 42.23360 | 33.44805 | 37216 ft | 506 kts | 98° |
| 2026-04-15 15:49 | 42.22239 | 33.54115 | 37216 ft | 505 kts | 98° |
| 2026-04-15 15:49 | 42.21110 | 33.63469 | 37200 ft | 505 kts | 98° |
| 2026-04-15 15:50 | 42.19977 | 33.72827 | 37214 ft | 506 kts | 98° |
| 2026-04-15 15:50 | 42.18827 | 33.82182 | 37211 ft | 506 kts | 98° |
| 2026-04-15 15:51 | 42.17668 | 33.91531 | 37203 ft | 506 kts | 98° |
| 2026-04-15 15:51 | 42.16504 | 34.00882 | 37202 ft | 506 kts | 98° |
| 2026-04-15 15:52 | 42.15340 | 34.10241 | 37202 ft | 506 kts | 98° |
| 2026-04-15 15:52 | 42.14169 | 34.19565 | 37199 ft | 506 kts | 98° |
| 2026-04-15 15:53 | 42.12982 | 34.28900 | 37197 ft | 506 kts | 98° |
| 2026-04-15 15:53 | 42.11794 | 34.38182 | 37215 ft | 506 kts | 99° |
| 2026-04-15 15:54 | 42.10584 | 34.47515 | 37214 ft | 506 kts | 99° |
| 2026-04-15 15:54 | 42.09306 | 34.56827 | 37214 ft | 506 kts | 99° |
| 2026-04-15 15:55 | 42.07988 | 34.66128 | 37216 ft | 506 kts | 99° |
| 2026-04-15 15:55 | 42.06682 | 34.75433 | 37246 ft | 506 kts | 99° |
| 2026-04-15 15:56 | 42.05379 | 34.84722 | 37262 ft | 506 kts | 99° |
| 2026-04-15 15:56 | 42.04094 | 34.94035 | 37278 ft | 506 kts | 99° |
| 2026-04-15 15:57 | 42.02789 | 35.03332 | 37277 ft | 506 kts | 104° |
| 2026-04-15 15:57 | 42.00070 | 35.12019 | 37275 ft | 505 kts | 123° |
| 2026-04-15 15:58 | 41.96147 | 35.19827 | 37266 ft | 504 kts | 126° |
| 2026-04-15 15:58 | 41.92204 | 35.27625 | 37254 ft | 505 kts | 126° |
| 2026-04-15 15:59 | 41.88260 | 35.35424 | 37242 ft | 505 kts | 126° |
| 2026-04-15 15:59 | 41.84310 | 35.43238 | 37235 ft | 505 kts | 126° |
| 2026-04-15 16:00 | 41.80377 | 35.50981 | 37234 ft | 506 kts | 126° |
| 2026-04-15 16:00 | 41.76405 | 35.58763 | 37237 ft | 506 kts | 126° |
| 2026-04-15 16:01 | 41.72423 | 35.66535 | 37238 ft | 506 kts | 126° |
| 2026-04-15 16:01 | 41.68444 | 35.74311 | 37226 ft | 505 kts | 126° |
| 2026-04-15 16:02 | 41.66460 | 35.78189 | 36361 ft | 510 kts | 126° |
| 2026-04-15 16:02 | 41.64428 | 35.82145 | 35402 ft | 518 kts | 127° |
| 2026-04-15 16:02 | 41.62372 | 35.86129 | 34461 ft | 524 kts | 127° |
| 2026-04-15 16:02 | 41.60292 | 35.90153 | 33528 ft | 527 kts | 127° |
| 2026-04-15 16:03 | 41.58189 | 35.94220 | 32455 ft | 534 kts | 127° |
| 2026-04-15 16:03 | 41.56096 | 35.98272 | 31722 ft | 531 kts | 127° |
| 2026-04-15 16:03 | 41.54003 | 36.02324 | 31019 ft | 528 kts | 126° |
| 2026-04-15 16:03 | 41.51922 | 36.06347 | 30328 ft | 525 kts | 126° |
| 2026-04-15 16:04 | 41.49854 | 36.10340 | 29660 ft | 520 kts | 126° |
| 2026-04-15 16:04 | 41.48497 | 36.12959 | 29211 ft | 516 kts | 126° |
| 2026-04-15 16:04 | 41.46460 | 36.16877 | 28560 ft | 510 kts | 126° |
| 2026-04-15 16:04 | 41.44446 | 36.20739 | 27816 ft | 506 kts | 126° |
| 2026-04-15 16:05 | 41.42450 | 36.24557 | 27332 ft | 497 kts | 126° |
| 2026-04-15 16:05 | 41.40485 | 36.28314 | 26704 ft | 492 kts | 126° |
| 2026-04-15 16:05 | 41.38539 | 36.32037 | 26110 ft | 486 kts | 126° |
| 2026-04-15 16:05 | 41.36623 | 36.35701 | 25526 ft | 481 kts | 125° |
| 2026-04-15 16:06 | 41.34720 | 36.39341 | 24955 ft | 475 kts | 125° |
| 2026-04-15 16:06 | 41.32840 | 36.42926 | 24399 ft | 469 kts | 125° |
| 2026-04-15 16:06 | 41.30980 | 36.46462 | 23841 ft | 464 kts | 125° |
| 2026-04-15 16:06 | 41.29144 | 36.49951 | 23212 ft | 458 kts | 124° |
| 2026-04-15 16:07 | 41.27587 | 36.53608 | 22589 ft | 452 kts | 113° |
| 2026-04-15 16:07 | 41.26559 | 36.57516 | 22035 ft | 444 kts | 102° |
| 2026-04-15 16:07 | 41.25775 | 36.65515 | 20917 ft | 431 kts | 93° |
| 2026-04-15 16:08 | 41.25490 | 36.69469 | 20348 ft | 428 kts | 93° |
| 2026-04-15 16:08 | 41.25201 | 36.73387 | 19831 ft | 424 kts | 93° |
| 2026-04-15 16:08 | 41.24911 | 36.77260 | 19293 ft | 419 kts | 94° |
| 2026-04-15 16:08 | 41.24622 | 36.81090 | 18782 ft | 415 kts | 94° |
| 2026-04-15 16:09 | 41.24335 | 36.84893 | 18176 ft | 412 kts | 94° |
| 2026-04-15 16:09 | 41.24050 | 36.88657 | 17651 ft | 407 kts | 94° |
| 2026-04-15 16:09 | 41.23766 | 36.92375 | 17104 ft | 401 kts | 94° |
| 2026-04-15 16:09 | 41.23486 | 36.96038 | 16577 ft | 396 kts | 94° |
| 2026-04-15 16:10 | 41.23213 | 36.99648 | 16049 ft | 391 kts | 94° |
| 2026-04-15 16:10 | 41.22941 | 37.03223 | 15530 ft | 387 kts | 94° |
| 2026-04-15 16:10 | 41.22672 | 37.06713 | 15020 ft | 383 kts | 94° |
| 2026-04-15 16:10 | 41.22398 | 37.10211 | 14509 ft | 379 kts | 94° |
| 2026-04-15 16:11 | 41.22125 | 37.13681 | 13992 ft | 376 kts | 94° |
| 2026-04-15 16:11 | 41.21854 | 37.17119 | 13446 ft | 372 kts | 94° |
| 2026-04-15 16:11 | 41.21565 | 37.20505 | 12936 ft | 368 kts | 98° |
| 2026-04-15 16:11 | 41.20909 | 37.23771 | 12438 ft | 365 kts | 110° |
| 2026-04-15 16:12 | 41.19846 | 37.26851 | 11686 ft | 369 kts | 116° |
| 2026-04-15 16:12 | 41.18716 | 37.29898 | 11167 ft | 366 kts | 116° |
| 2026-04-15 16:12 | 41.17592 | 37.32915 | 10667 ft | 363 kts | 116° |
| 2026-04-15 16:12 | 41.16482 | 37.35894 | 10315 ft | 356 kts | 116° |
| 2026-04-15 16:13 | 41.15409 | 37.38785 | 10201 ft | 342 kts | 116° |
| 2026-04-15 16:13 | 41.14375 | 37.41568 | 10066 ft | 330 kts | 117° |
| 2026-04-15 16:13 | 41.13376 | 37.44251 | 9936 ft | 319 kts | 117° |
| 2026-04-15 16:13 | 41.12394 | 37.46877 | 9515 ft | 319 kts | 117° |
| 2026-04-15 16:14 | 41.11407 | 37.49519 | 9052 ft | 320 kts | 117° |
| 2026-04-15 16:14 | 41.10420 | 37.52168 | 8633 ft | 320 kts | 117° |
| 2026-04-15 16:14 | 41.09439 | 37.54806 | 8221 ft | 319 kts | 117° |
| 2026-04-15 16:14 | 41.08477 | 37.57390 | 7820 ft | 306 kts | 117° |
| 2026-04-15 16:15 | 41.07553 | 37.59871 | 7432 ft | 294 kts | 117° |
| 2026-04-15 16:15 | 41.06665 | 37.62251 | 7069 ft | 283 kts | 117° |
| 2026-04-15 16:15 | 41.05805 | 37.64555 | 6705 ft | 274 kts | 117° |
| 2026-04-15 16:15 | 41.04970 | 37.66786 | 6339 ft | 266 kts | 117° |
| 2026-04-15 16:16 | 41.04155 | 37.68951 | 6003 ft | 258 kts | 117° |
| 2026-04-15 16:16 | 41.03370 | 37.71036 | 5674 ft | 248 kts | 117° |
| 2026-04-15 16:16 | 41.02616 | 37.73043 | 5360 ft | 239 kts | 116° |
| 2026-04-15 16:16 | 41.02005 | 37.75044 | 5061 ft | 237 kts | 106° |
| 2026-04-15 16:17 | 41.01614 | 37.77158 | 4743 ft | 237 kts | 101° |
| 2026-04-15 16:17 | 41.01286 | 37.79290 | 4435 ft | 236 kts | 101° |
| 2026-04-15 16:17 | 41.00961 | 37.81408 | 4141 ft | 234 kts | 101° |
| 2026-04-15 16:17 | 41.00633 | 37.83517 | 3838 ft | 233 kts | 102° |
| 2026-04-15 16:18 | 41.00307 | 37.85603 | 3533 ft | 229 kts | 102° |
| 2026-04-15 16:18 | 40.99991 | 37.87622 | 3239 ft | 219 kts | 102° |
| 2026-04-15 16:18 | 40.99690 | 37.89544 | 2959 ft | 208 kts | 102° |
| 2026-04-15 16:18 | 40.99404 | 37.91373 | 2678 ft | 197 kts | 101° |
| 2026-04-15 16:19 | 40.99138 | 37.93067 | 2442 ft | 182 kts | 101° |
| 2026-04-15 16:19 | 40.98886 | 37.94661 | 2168 ft | 171 kts | 101° |
| 2026-04-15 16:19 | 40.98650 | 37.96141 | 1933 ft | 154 kts | 102° |
| 2026-04-15 16:19 | 40.98447 | 37.97460 | 1662 ft | 141 kts | 100° |
| 2026-04-15 16:20 | 40.98267 | 37.98708 | 1365 ft | 136 kts | 101° |
| 2026-04-15 16:20 | 40.98069 | 37.99921 | 1163 ft | 134 kts | 103° |
| 2026-04-15 16:20 | 40.97869 | 38.01127 | 943 ft | 134 kts | 102° |
| 2026-04-15 16:20 | 40.97675 | 38.02322 | 731 ft | 132 kts | 101° |
| 2026-04-15 16:21 | 40.97490 | 38.03496 | 580 ft | 129 kts | 101° |
| 2026-04-15 16:21 | 40.97302 | 38.04652 | 423 ft | 128 kts | 101° |
| 2026-04-15 16:21 | 40.97127 | 38.05801 | 244 ft | 127 kts | 100° |
| 2026-04-15 16:21 | 40.96951 | 38.06932 | 50 ft | 125 kts | 100° |
| 2026-04-15 16:22 | 40.96789 | 38.07960 | 24 ft | 94 kts | 102° |
| 2026-04-15 16:22 | 40.96689 | 38.08583 | 20 ft | 48 kts | 102° |
| 2026-04-15 16:22 | 40.96631 | 38.08949 | 21 ft | 34 kts | 102° |
| 2026-04-15 16:22 | 40.96585 | 38.09242 | 22 ft | 32 kts | 102° |
| 2026-04-15 16:23 | 40.96540 | 38.09523 | 24 ft | 31 kts | 102° |
| 2026-04-15 16:23 | 40.96497 | 38.09797 | 24 ft | 28 kts | 102° |
| 2026-04-15 16:23 | 40.96455 | 38.10055 | 24 ft | 28 kts | 102° |
| 2026-04-15 16:23 | 40.96435 | 38.10218 | 22 ft | 12 kts | 84° |
| 2026-04-15 16:24 | 40.96459 | 38.10326 | 20 ft | 10 kts | 91° |
| 2026-04-15 16:24 | 40.96411 | 38.10340 | 21 ft | 9 kts | 230° |
| 2026-04-15 16:24 | 40.96423 | 38.10250 | 23 ft | 11 kts | 285° |
| 2026-04-15 16:24 | 40.96441 | 38.10140 | 23 ft | 13 kts | 282° |
| 2026-04-15 16:25 | 40.96463 | 38.10007 | 24 ft | 17 kts | 282° |
| 2026-04-15 16:25 | 40.96489 | 38.09839 | 24 ft | 20 kts | 282° |
| 2026-04-15 16:25 | 40.96521 | 38.09641 | 25 ft | 24 kts | 282° |
| 2026-04-15 16:25 | 40.96559 | 38.09410 | 24 ft | 28 kts | 282° |
| 2026-04-15 16:26 | 40.96599 | 38.09150 | 22 ft | 29 kts | 282° |
| 2026-04-15 16:26 | 40.96642 | 38.08881 | 21 ft | 31 kts | 282° |
| 2026-04-15 16:26 | 40.96688 | 38.08595 | 20 ft | 30 kts | 281° |
| 2026-04-15 16:26 | 40.96729 | 38.08336 | 22 ft | 26 kts | 281° |
| 2026-04-15 16:27 | 40.96754 | 38.08164 | 27 ft | 10 kts | 274° |
| 2026-04-15 16:27 | 40.96744 | 38.08128 | 27 ft | 2 kts | 232° |
| 2026-04-15 16:27 | 40.96710 | 38.08109 | 23 ft | 9 kts | 191° |
| 2026-04-15 16:27 | 40.96625 | 38.08086 | 18 ft | 15 kts | 193° |
| 2026-04-15 16:28 | 40.96550 | 38.08068 | 18 ft | 7 kts | 179° |
| 2026-04-15 16:28 | 40.96497 | 38.08070 | 17 ft | 6 kts | 192° |
| 2026-04-15 16:28 | 40.96467 | 38.08061 | 17 ft | 2 kts | 192° |
| 2026-04-15 16:28 | 40.96458 | 38.08059 | 17 ft | 0 kts | 192° |